sensor_id;sensor_type;location;lat;lon;timestamp;temperature;humidity
53310;DHT22;39197;53.200;5.792;2023-01-31T00:00:46;4.30;99.90
53310;DHT22;39197;53.200;5.792;2023-01-31T00:03:12;4.40;99.90
53310;DHT22;39197;53.200;5.792;2023-01-31T00:05:37;4.40;99.90
53310;DHT22;39197;53.200;5.792;2023-01-31T00:08:03;4.30;99.90
53310;DHT22;39197;53.200;5.792;2023-01-31T00:10:29;4.30;99.90
53310;DHT22;39197;53.200;5.792;2023-01-31T00:12:56;4.30;99.90
53310;DHT22;39197;53.200;5.792;2023-01-31T00:15:21;4.30;99.90
53310;DHT22;39197;53.200;5.792;2023-01-31T00:17:47;4.30;99.90
53310;DHT22;39197;53.200;5.792;2023-01-31T00:20:13;4.30;99.90
53310;DHT22;39197;53.200;5.792;2023-01-31T00:22:38;4.30;99.90
53310;DHT22;39197;53.200;5.792;2023-01-31T00:25:05;4.30;99.90
53310;DHT22;39197;53.200;5.792;2023-01-31T00:27:30;4.30;99.90
53310;DHT22;39197;53.200;5.792;2023-01-31T00:29:56;4.20;99.90
53310;DHT22;39197;53.200;5.792;2023-01-31T00:32:22;4.20;99.90
53310;DHT22;39197;53.200;5.792;2023-01-31T00:34:51;4.20;99.90
53310;DHT22;39197;53.200;5.792;2023-01-31T00:37:17;4.20;99.90
53310;DHT22;39197;53.200;5.792;2023-01-31T00:39:43;4.20;99.90
53310;DHT22;39197;53.200;5.792;2023-01-31T00:42:09;4.20;99.90
53310;DHT22;39197;53.200;5.792;2023-01-31T00:44:34;4.30;99.90
53310;DHT22;39197;53.200;5.792;2023-01-31T00:47:00;4.30;99.90
53310;DHT22;39197;53.200;5.792;2023-01-31T00:49:25;4.40;99.90
53310;DHT22;39197;53.200;5.792;2023-01-31T00:51:51;4.40;99.90
53310;DHT22;39197;53.200;5.792;2023-01-31T00:54:17;4.50;99.90
53310;DHT22;39197;53.200;5.792;2023-01-31T00:56:42;4.40;99.90
53310;DHT22;39197;53.200;5.792;2023-01-31T00:59:09;4.40;99.90
53310;DHT22;39197;53.200;5.792;2023-01-31T01:01:36;4.50;99.90
53310;DHT22;39197;53.200;5.792;2023-01-31T01:04:02;4.40;99.90
53310;DHT22;39197;53.200;5.792;2023-01-31T01:06:27;4.40;99.90
53310;DHT22;39197;53.200;5.792;2023-01-31T01:08:54;4.40;99.90
53310;DHT22;39197;53.200;5.792;2023-01-31T01:11:23;4.40;99.90
53310;DHT22;39197;53.200;5.792;2023-01-31T01:13:50;4.40;99.90
53310;DHT22;39197;53.200;5.792;2023-01-31T01:16:18;4.40;99.90
53310;DHT22;39197;53.200;5.792;2023-01-31T01:18:44;4.30;99.90
53310;DHT22;39197;53.200;5.792;2023-01-31T01:21:15;4.20;99.90
53310;DHT22;39197;53.200;5.792;2023-01-31T01:23:41;4.20;99.90
53310;DHT22;39197;53.200;5.792;2023-01-31T01:26:18;4.30;99.90
53310;DHT22;39197;53.200;5.792;2023-01-31T01:28:44;4.30;99.90
53310;DHT22;39197;53.200;5.792;2023-01-31T01:31:11;4.30;99.90
53310;DHT22;39197;53.200;5.792;2023-01-31T01:33:37;4.30;99.90
53310;DHT22;39197;53.200;5.792;2023-01-31T01:36:04;4.30;99.90
53310;DHT22;39197;53.200;5.792;2023-01-31T01:38:36;4.30;99.90
53310;DHT22;39197;53.200;5.792;2023-01-31T01:41:02;4.40;99.90
53310;DHT22;39197;53.200;5.792;2023-01-31T01:43:42;4.50;99.90
53310;DHT22;39197;53.200;5.792;2023-01-31T01:46:10;4.40;99.90
53310;DHT22;39197;53.200;5.792;2023-01-31T01:48:36;4.40;99.90
53310;DHT22;39197;53.200;5.792;2023-01-31T01:51:04;4.40;99.90
53310;DHT22;39197;53.200;5.792;2023-01-31T01:53:34;4.30;99.90
53310;DHT22;39197;53.200;5.792;2023-01-31T01:56:06;4.40;99.90
53310;DHT22;39197;53.200;5.792;2023-01-31T01:58:37;4.40;99.90
53310;DHT22;39197;53.200;5.792;2023-01-31T02:01:05;4.40;99.90
53310;DHT22;39197;53.200;5.792;2023-01-31T02:03:32;4.40;99.90
53310;DHT22;39197;53.200;5.792;2023-01-31T02:06:01;4.70;99.90
53310;DHT22;39197;53.200;5.792;2023-01-31T02:08:31;4.60;99.90
53310;DHT22;39197;53.200;5.792;2023-01-31T02:11:09;4.60;99.90
53310;DHT22;39197;53.200;5.792;2023-01-31T02:13:38;4.70;99.90
53310;DHT22;39197;53.200;5.792;2023-01-31T02:16:05;4.80;99.90
53310;DHT22;39197;53.200;5.792;2023-01-31T02:18:30;4.70;99.90
53310;DHT22;39197;53.200;5.792;2023-01-31T02:35:24;4.80;99.90
53310;DHT22;39197;53.200;5.792;2023-01-31T02:41:39;4.60;99.90
53310;DHT22;39197;53.200;5.792;2023-01-31T02:44:49;4.60;99.90
53310;DHT22;39197;53.200;5.792;2023-01-31T02:52:55;4.40;99.90
53310;DHT22;39197;53.200;5.792;2023-01-31T02:55:37;4.40;99.90
53310;DHT22;39197;53.200;5.792;2023-01-31T02:58:26;4.30;99.90
53310;DHT22;39197;53.200;5.792;2023-01-31T03:00:56;4.40;99.90
53310;DHT22;39197;53.200;5.792;2023-01-31T03:03:32;4.40;99.90
53310;DHT22;39197;53.200;5.792;2023-01-31T03:08:51;4.50;99.90
53310;DHT22;39197;53.200;5.792;2023-01-31T03:11:18;4.50;99.90
53310;DHT22;39197;53.200;5.792;2023-01-31T03:14:11;4.50;99.90
53310;DHT22;39197;53.200;5.792;2023-01-31T03:16:58;4.40;99.90
53310;DHT22;39197;53.200;5.792;2023-01-31T03:19:59;4.40;99.90
53310;DHT22;39197;53.200;5.792;2023-01-31T03:22:32;4.40;99.90
53310;DHT22;39197;53.200;5.792;2023-01-31T03:25:00;4.50;99.90
53310;DHT22;39197;53.200;5.792;2023-01-31T03:27:27;4.60;99.90
53310;DHT22;39197;53.200;5.792;2023-01-31T03:30:01;4.60;99.90
53310;DHT22;39197;53.200;5.792;2023-01-31T03:32:37;4.70;99.90
53310;DHT22;39197;53.200;5.792;2023-01-31T03:35:05;4.80;99.90
53310;DHT22;39197;53.200;5.792;2023-01-31T03:37:51;4.80;99.90
53310;DHT22;39197;53.200;5.792;2023-01-31T03:48:23;4.90;99.90
53310;DHT22;39197;53.200;5.792;2023-01-31T03:50:56;4.90;99.90
53310;DHT22;39197;53.200;5.792;2023-01-31T03:53:42;4.90;99.90
53310;DHT22;39197;53.200;5.792;2023-01-31T03:58:57;5.00;99.90
53310;DHT22;39197;53.200;5.792;2023-01-31T04:01:27;5.10;99.90
53310;DHT22;39197;53.200;5.792;2023-01-31T04:04:01;5.10;99.90
53310;DHT22;39197;53.200;5.792;2023-01-31T04:06:28;5.30;99.90
53310;DHT22;39197;53.200;5.792;2023-01-31T04:08:54;5.30;99.90
53310;DHT22;39197;53.200;5.792;2023-01-31T04:11:23;5.40;99.90
53310;DHT22;39197;53.200;5.792;2023-01-31T04:13:49;5.50;99.90
53310;DHT22;39197;53.200;5.792;2023-01-31T04:16:15;5.60;99.90
53310;DHT22;39197;53.200;5.792;2023-01-31T04:18:41;5.60;99.90
53310;DHT22;39197;53.200;5.792;2023-01-31T04:21:06;5.70;99.90
53310;DHT22;39197;53.200;5.792;2023-01-31T04:23:32;5.70;99.90
53310;DHT22;39197;53.200;5.792;2023-01-31T04:25:57;5.70;99.90
53310;DHT22;39197;53.200;5.792;2023-01-31T04:28:23;5.70;99.90
53310;DHT22;39197;53.200;5.792;2023-01-31T04:30:53;5.80;99.90
53310;DHT22;39197;53.200;5.792;2023-01-31T04:33:19;5.80;99.90
53310;DHT22;39197;53.200;5.792;2023-01-31T04:35:44;5.90;99.90
53310;DHT22;39197;53.200;5.792;2023-01-31T04:38:10;5.80;99.90
53310;DHT22;39197;53.200;5.792;2023-01-31T04:40:36;5.90;99.90
53310;DHT22;39197;53.200;5.792;2023-01-31T04:43:01;5.90;99.90
53310;DHT22;39197;53.200;5.792;2023-01-31T04:45:27;5.80;99.90
53310;DHT22;39197;53.200;5.792;2023-01-31T04:47:53;5.80;99.90
53310;DHT22;39197;53.200;5.792;2023-01-31T04:50:18;5.80;99.90
53310;DHT22;39197;53.200;5.792;2023-01-31T04:52:44;5.80;99.90
53310;DHT22;39197;53.200;5.792;2023-01-31T04:55:11;5.80;99.90
53310;DHT22;39197;53.200;5.792;2023-01-31T04:57:37;5.80;99.90
53310;DHT22;39197;53.200;5.792;2023-01-31T05:00:03;5.90;99.90
53310;DHT22;39197;53.200;5.792;2023-01-31T05:02:30;5.90;99.90
53310;DHT22;39197;53.200;5.792;2023-01-31T05:04:56;5.80;99.90
53310;DHT22;39197;53.200;5.792;2023-01-31T05:07:21;5.80;99.90
53310;DHT22;39197;53.200;5.792;2023-01-31T05:09:47;5.80;99.90
53310;DHT22;39197;53.200;5.792;2023-01-31T05:12:12;5.80;99.90
53310;DHT22;39197;53.200;5.792;2023-01-31T05:14:38;5.80;99.90
53310;DHT22;39197;53.200;5.792;2023-01-31T05:17:04;5.80;99.90
53310;DHT22;39197;53.200;5.792;2023-01-31T05:19:30;5.80;99.90
53310;DHT22;39197;53.200;5.792;2023-01-31T05:21:55;5.70;99.90
53310;DHT22;39197;53.200;5.792;2023-01-31T05:24:26;5.90;99.90
53310;DHT22;39197;53.200;5.792;2023-01-31T05:26:54;5.90;99.90
53310;DHT22;39197;53.200;5.792;2023-01-31T05:29:26;6.00;99.90
53310;DHT22;39197;53.200;5.792;2023-01-31T05:31:56;5.90;99.90
53310;DHT22;39197;53.200;5.792;2023-01-31T05:34:23;6.00;99.90
53310;DHT22;39197;53.200;5.792;2023-01-31T05:36:50;6.00;99.90
53310;DHT22;39197;53.200;5.792;2023-01-31T05:39:16;6.00;99.90
53310;DHT22;39197;53.200;5.792;2023-01-31T05:41:41;6.00;99.90
53310;DHT22;39197;53.200;5.792;2023-01-31T05:44:07;6.00;99.90
53310;DHT22;39197;53.200;5.792;2023-01-31T05:46:33;6.00;99.90
53310;DHT22;39197;53.200;5.792;2023-01-31T05:48:59;6.00;99.90
53310;DHT22;39197;53.200;5.792;2023-01-31T05:51:24;6.10;99.90
53310;DHT22;39197;53.200;5.792;2023-01-31T05:53:50;6.10;99.90
53310;DHT22;39197;53.200;5.792;2023-01-31T05:56:16;6.00;99.90
53310;DHT22;39197;53.200;5.792;2023-01-31T05:58:42;6.20;99.90
53310;DHT22;39197;53.200;5.792;2023-01-31T06:01:07;6.10;99.90
53310;DHT22;39197;53.200;5.792;2023-01-31T06:03:33;6.10;99.90
53310;DHT22;39197;53.200;5.792;2023-01-31T06:05:59;6.20;99.90
53310;DHT22;39197;53.200;5.792;2023-01-31T06:08:25;6.20;99.90
53310;DHT22;39197;53.200;5.792;2023-01-31T06:10:50;6.20;99.90
53310;DHT22;39197;53.200;5.792;2023-01-31T06:13:16;6.20;99.90
53310;DHT22;39197;53.200;5.792;2023-01-31T06:15:42;6.20;99.90
53310;DHT22;39197;53.200;5.792;2023-01-31T06:18:08;6.20;99.90
53310;DHT22;39197;53.200;5.792;2023-01-31T06:20:34;6.10;99.90
53310;DHT22;39197;53.200;5.792;2023-01-31T06:23:00;6.10;99.90
53310;DHT22;39197;53.200;5.792;2023-01-31T06:25:26;6.20;99.90
53310;DHT22;39197;53.200;5.792;2023-01-31T06:27:52;6.10;99.90
53310;DHT22;39197;53.200;5.792;2023-01-31T06:30:19;6.20;99.90
53310;DHT22;39197;53.200;5.792;2023-01-31T06:32:45;6.20;99.90
53310;DHT22;39197;53.200;5.792;2023-01-31T06:35:10;6.10;99.90
53310;DHT22;39197;53.200;5.792;2023-01-31T06:37:36;6.00;99.90
53310;DHT22;39197;53.200;5.792;2023-01-31T06:40:01;5.90;99.90
53310;DHT22;39197;53.200;5.792;2023-01-31T06:42:27;6.00;99.90
53310;DHT22;39197;53.200;5.792;2023-01-31T06:44:53;5.90;99.90
53310;DHT22;39197;53.200;5.792;2023-01-31T06:47:18;6.00;99.90
53310;DHT22;39197;53.200;5.792;2023-01-31T06:49:44;6.00;99.90
53310;DHT22;39197;53.200;5.792;2023-01-31T06:52:09;6.00;99.90
53310;DHT22;39197;53.200;5.792;2023-01-31T06:54:35;5.90;99.90
53310;DHT22;39197;53.200;5.792;2023-01-31T06:57:01;5.90;99.90
53310;DHT22;39197;53.200;5.792;2023-01-31T06:59:26;5.90;99.90
53310;DHT22;39197;53.200;5.792;2023-01-31T07:01:52;5.90;99.90
53310;DHT22;39197;53.200;5.792;2023-01-31T07:04:17;5.90;99.90
53310;DHT22;39197;53.200;5.792;2023-01-31T07:06:43;5.90;99.90
53310;DHT22;39197;53.200;5.792;2023-01-31T07:09:10;5.80;99.90
53310;DHT22;39197;53.200;5.792;2023-01-31T07:11:36;5.90;99.90
53310;DHT22;39197;53.200;5.792;2023-01-31T07:14:03;5.90;99.90
53310;DHT22;39197;53.200;5.792;2023-01-31T07:16:29;6.00;99.90
53310;DHT22;39197;53.200;5.792;2023-01-31T07:18:55;5.90;99.90
53310;DHT22;39197;53.200;5.792;2023-01-31T07:21:22;5.90;99.90
53310;DHT22;39197;53.200;5.792;2023-01-31T07:23:48;6.00;99.90
53310;DHT22;39197;53.200;5.792;2023-01-31T07:26:14;6.00;99.90
53310;DHT22;39197;53.200;5.792;2023-01-31T07:28:40;5.90;99.90
53310;DHT22;39197;53.200;5.792;2023-01-31T07:31:07;5.90;99.90
53310;DHT22;39197;53.200;5.792;2023-01-31T07:33:35;5.90;99.90
53310;DHT22;39197;53.200;5.792;2023-01-31T07:36:02;6.00;99.90
53310;DHT22;39197;53.200;5.792;2023-01-31T07:38:32;6.00;99.90
53310;DHT22;39197;53.200;5.792;2023-01-31T07:41:02;5.90;99.90
53310;DHT22;39197;53.200;5.792;2023-01-31T07:43:28;6.00;99.90
53310;DHT22;39197;53.200;5.792;2023-01-31T07:45:54;6.00;99.90
53310;DHT22;39197;53.200;5.792;2023-01-31T07:48:20;6.00;99.90
53310;DHT22;39197;53.200;5.792;2023-01-31T07:50:52;6.10;99.90
53310;DHT22;39197;53.200;5.792;2023-01-31T07:53:19;6.10;99.90
53310;DHT22;39197;53.200;5.792;2023-01-31T07:55:45;6.20;99.90
53310;DHT22;39197;53.200;5.792;2023-01-31T07:58:14;6.10;99.90
53310;DHT22;39197;53.200;5.792;2023-01-31T08:00:40;6.10;99.90
53310;DHT22;39197;53.200;5.792;2023-01-31T08:03:27;6.20;99.90
53310;DHT22;39197;53.200;5.792;2023-01-31T08:06:07;6.20;99.90
53310;DHT22;39197;53.200;5.792;2023-01-31T08:08:34;6.10;99.90
53310;DHT22;39197;53.200;5.792;2023-01-31T08:11:00;6.20;99.90
53310;DHT22;39197;53.200;5.792;2023-01-31T08:13:26;6.10;99.90
53310;DHT22;39197;53.200;5.792;2023-01-31T08:15:52;6.10;99.90
53310;DHT22;39197;53.200;5.792;2023-01-31T08:18:18;6.20;99.90
53310;DHT22;39197;53.200;5.792;2023-01-31T08:20:44;6.30;99.90
53310;DHT22;39197;53.200;5.792;2023-01-31T08:23:10;6.20;99.90
53310;DHT22;39197;53.200;5.792;2023-01-31T08:25:36;6.30;99.90
53310;DHT22;39197;53.200;5.792;2023-01-31T08:28:01;6.30;99.90
53310;DHT22;39197;53.200;5.792;2023-01-31T08:30:28;6.40;99.90
53310;DHT22;39197;53.200;5.792;2023-01-31T08:32:54;6.40;99.90
53310;DHT22;39197;53.200;5.792;2023-01-31T08:35:20;6.40;99.90
53310;DHT22;39197;53.200;5.792;2023-01-31T08:37:46;6.40;99.90
53310;DHT22;39197;53.200;5.792;2023-01-31T08:40:12;6.40;99.90
53310;DHT22;39197;53.200;5.792;2023-01-31T08:42:38;6.40;99.90
53310;DHT22;39197;53.200;5.792;2023-01-31T08:45:04;6.50;99.90
53310;DHT22;39197;53.200;5.792;2023-01-31T08:47:31;6.40;99.90
53310;DHT22;39197;53.200;5.792;2023-01-31T08:49:57;6.50;99.90
53310;DHT22;39197;53.200;5.792;2023-01-31T08:52:23;6.50;99.90
53310;DHT22;39197;53.200;5.792;2023-01-31T08:54:48;6.60;99.90
53310;DHT22;39197;53.200;5.792;2023-01-31T08:57:14;6.60;99.90
53310;DHT22;39197;53.200;5.792;2023-01-31T08:59:39;6.60;99.90
53310;DHT22;39197;53.200;5.792;2023-01-31T09:02:05;6.60;99.90
53310;DHT22;39197;53.200;5.792;2023-01-31T09:04:31;6.60;99.90
53310;DHT22;39197;53.200;5.792;2023-01-31T09:06:56;6.60;99.90
53310;DHT22;39197;53.200;5.792;2023-01-31T09:09:22;6.70;99.90
53310;DHT22;39197;53.200;5.792;2023-01-31T09:11:50;6.70;99.90
53310;DHT22;39197;53.200;5.792;2023-01-31T09:14:15;6.70;99.90
53310;DHT22;39197;53.200;5.792;2023-01-31T09:16:41;6.90;99.90
53310;DHT22;39197;53.200;5.792;2023-01-31T09:19:07;6.90;99.90
53310;DHT22;39197;53.200;5.792;2023-01-31T09:21:32;6.80;99.90
53310;DHT22;39197;53.200;5.792;2023-01-31T09:23:59;6.90;99.90
53310;DHT22;39197;53.200;5.792;2023-01-31T09:26:27;6.80;99.90
53310;DHT22;39197;53.200;5.792;2023-01-31T09:28:53;6.80;99.90
53310;DHT22;39197;53.200;5.792;2023-01-31T09:31:20;6.80;99.90
53310;DHT22;39197;53.200;5.792;2023-01-31T09:33:46;6.80;99.90
53310;DHT22;39197;53.200;5.792;2023-01-31T09:36:17;6.80;99.90
53310;DHT22;39197;53.200;5.792;2023-01-31T09:38:43;6.80;99.90
53310;DHT22;39197;53.200;5.792;2023-01-31T09:41:43;6.70;99.90
53310;DHT22;39197;53.200;5.792;2023-01-31T09:44:16;6.70;99.90
53310;DHT22;39197;53.200;5.792;2023-01-31T09:46:48;6.70;99.90
53310;DHT22;39197;53.200;5.792;2023-01-31T09:49:23;6.60;99.90
53310;DHT22;39197;53.200;5.792;2023-01-31T09:51:54;6.60;99.90
53310;DHT22;39197;53.200;5.792;2023-01-31T09:54:27;6.50;99.90
53310;DHT22;39197;53.200;5.792;2023-01-31T10:02:58;6.50;99.90
53310;DHT22;39197;53.200;5.792;2023-01-31T10:11:01;6.40;99.90
53310;DHT22;39197;53.200;5.792;2023-01-31T10:13:34;6.40;99.90
53310;DHT22;39197;53.200;5.792;2023-01-31T10:16:08;6.50;99.90
53310;DHT22;39197;53.200;5.792;2023-01-31T10:18:41;6.50;99.90
53310;DHT22;39197;53.200;5.792;2023-01-31T10:21:23;6.60;99.90
53310;DHT22;39197;53.200;5.792;2023-01-31T10:23:52;6.70;99.90
53310;DHT22;39197;53.200;5.792;2023-01-31T10:26:28;6.70;99.90
53310;DHT22;39197;53.200;5.792;2023-01-31T10:28:57;6.70;99.90
53310;DHT22;39197;53.200;5.792;2023-01-31T10:31:33;6.80;99.90
53310;DHT22;39197;53.200;5.792;2023-01-31T10:34:15;6.80;99.90
53310;DHT22;39197;53.200;5.792;2023-01-31T10:39:25;6.90;99.90
53310;DHT22;39197;53.200;5.792;2023-01-31T10:42:10;6.90;99.90
53310;DHT22;39197;53.200;5.792;2023-01-31T10:44:46;7.00;99.90
53310;DHT22;39197;53.200;5.792;2023-01-31T10:47:16;6.90;99.90
53310;DHT22;39197;53.200;5.792;2023-01-31T10:49:45;7.00;99.90
53310;DHT22;39197;53.200;5.792;2023-01-31T10:57:48;7.20;99.90
53310;DHT22;39197;53.200;5.792;2023-01-31T11:00:19;7.20;99.90
53310;DHT22;39197;53.200;5.792;2023-01-31T11:02:46;7.30;99.90
53310;DHT22;39197;53.200;5.792;2023-01-31T11:05:18;7.30;99.90
53310;DHT22;39197;53.200;5.792;2023-01-31T11:07:45;7.40;99.90
53310;DHT22;39197;53.200;5.792;2023-01-31T11:10:28;7.30;99.90
53310;DHT22;39197;53.200;5.792;2023-01-31T11:12:57;7.50;99.90
53310;DHT22;39197;53.200;5.792;2023-01-31T11:15:27;7.50;99.90
53310;DHT22;39197;53.200;5.792;2023-01-31T11:17:58;7.50;99.90
53310;DHT22;39197;53.200;5.792;2023-01-31T11:20:29;7.50;99.90
53310;DHT22;39197;53.200;5.792;2023-01-31T11:22:57;7.50;99.90
53310;DHT22;39197;53.200;5.792;2023-01-31T11:25:24;7.60;99.90
53310;DHT22;39197;53.200;5.792;2023-01-31T11:27:57;7.70;99.90
53310;DHT22;39197;53.200;5.792;2023-01-31T11:30:30;7.80;99.90
53310;DHT22;39197;53.200;5.792;2023-01-31T11:32:57;7.90;99.90
53310;DHT22;39197;53.200;5.792;2023-01-31T11:35:32;7.90;99.90
53310;DHT22;39197;53.200;5.792;2023-01-31T11:38:00;8.00;99.90
53310;DHT22;39197;53.200;5.792;2023-01-31T11:40:32;8.00;99.90
53310;DHT22;39197;53.200;5.792;2023-01-31T11:43:21;8.10;99.90
53310;DHT22;39197;53.200;5.792;2023-01-31T11:45:57;8.10;99.90
53310;DHT22;39197;53.200;5.792;2023-01-31T11:48:30;8.10;99.90
53310;DHT22;39197;53.200;5.792;2023-01-31T11:51:00;8.10;99.90
53310;DHT22;39197;53.200;5.792;2023-01-31T11:53:32;8.10;99.90
53310;DHT22;39197;53.200;5.792;2023-01-31T11:56:26;8.20;99.90
53310;DHT22;39197;53.200;5.792;2023-01-31T11:58:57;8.10;99.90
53310;DHT22;39197;53.200;5.792;2023-01-31T12:01:26;8.20;99.90
53310;DHT22;39197;53.200;5.792;2023-01-31T12:04:00;8.20;99.90
53310;DHT22;39197;53.200;5.792;2023-01-31T12:06:27;8.30;99.90
53310;DHT22;39197;53.200;5.792;2023-01-31T12:08:55;8.30;99.90
53310;DHT22;39197;53.200;5.792;2023-01-31T12:11:33;8.40;99.90
53310;DHT22;39197;53.200;5.792;2023-01-31T12:16:30;8.60;99.90
53310;DHT22;39197;53.200;5.792;2023-01-31T12:27:03;9.40;99.90
53310;DHT22;39197;53.200;5.792;2023-01-31T12:35:22;10.30;99.90
53310;DHT22;39197;53.200;5.792;2023-01-31T12:38:10;10.10;99.90
53310;DHT22;39197;53.200;5.792;2023-01-31T12:40:52;10.10;99.90
53310;DHT22;39197;53.200;5.792;2023-01-31T12:43:24;10.10;99.90
53310;DHT22;39197;53.200;5.792;2023-01-31T12:54:08;9.40;99.90
53310;DHT22;39197;53.200;5.792;2023-01-31T12:57:03;9.20;99.90
53310;DHT22;39197;53.200;5.792;2023-01-31T12:59:54;9.10;99.90
53310;DHT22;39197;53.200;5.792;2023-01-31T13:07:50;8.80;99.90
53310;DHT22;39197;53.200;5.792;2023-01-31T13:10:39;8.80;99.90
53310;DHT22;39197;53.200;5.792;2023-01-31T13:18:48;8.80;99.90
53310;DHT22;39197;53.200;5.792;2023-01-31T13:21:22;8.90;99.90
53310;DHT22;39197;53.200;5.792;2023-01-31T13:23:56;8.90;99.90
53310;DHT22;39197;53.200;5.792;2023-01-31T13:26:43;9.20;99.90
53310;DHT22;39197;53.200;5.792;2023-01-31T13:29:23;9.40;99.90
53310;DHT22;39197;53.200;5.792;2023-01-31T13:31:59;9.70;99.90
53310;DHT22;39197;53.200;5.792;2023-01-31T13:34:33;9.70;99.90
53310;DHT22;39197;53.200;5.792;2023-01-31T13:37:04;9.80;99.90
53310;DHT22;39197;53.200;5.792;2023-01-31T13:39:38;9.30;99.90
53310;DHT22;39197;53.200;5.792;2023-01-31T13:42:05;9.10;99.90
53310;DHT22;39197;53.200;5.792;2023-01-31T13:44:31;9.10;99.90
53310;DHT22;39197;53.200;5.792;2023-01-31T13:47:00;9.00;99.90
53310;DHT22;39197;53.200;5.792;2023-01-31T13:49:34;8.90;99.90
53310;DHT22;39197;53.200;5.792;2023-01-31T13:52:04;8.90;99.90
53310;DHT22;39197;53.200;5.792;2023-01-31T13:54:41;8.80;99.90
53310;DHT22;39197;53.200;5.792;2023-01-31T13:57:29;8.80;99.90
53310;DHT22;39197;53.200;5.792;2023-01-31T14:00:27;8.70;99.90
53310;DHT22;39197;53.200;5.792;2023-01-31T14:03:08;8.70;99.90
53310;DHT22;39197;53.200;5.792;2023-01-31T14:10:55;8.50;99.90
53310;DHT22;39197;53.200;5.792;2023-01-31T14:15:52;8.50;99.90
53310;DHT22;39197;53.200;5.792;2023-01-31T14:18:40;8.40;99.90
53310;DHT22;39197;53.200;5.792;2023-01-31T14:24:00;8.40;99.90
53310;DHT22;39197;53.200;5.792;2023-01-31T14:29:22;8.50;99.90
53310;DHT22;39197;53.200;5.792;2023-01-31T14:31:49;8.60;99.90
53310;DHT22;39197;53.200;5.792;2023-01-31T14:34:27;8.60;99.90
53310;DHT22;39197;53.200;5.792;2023-01-31T14:40:54;8.60;99.90
53310;DHT22;39197;53.200;5.792;2023-01-31T14:58:35;8.40;99.90
53310;DHT22;39197;53.200;5.792;2023-01-31T15:01:05;8.50;99.90
53310;DHT22;39197;53.200;5.792;2023-01-31T15:03:37;8.60;99.90
53310;DHT22;39197;53.200;5.792;2023-01-31T15:11:39;9.00;99.90
53310;DHT22;39197;53.200;5.792;2023-01-31T15:14:25;9.00;99.90
53310;DHT22;39197;53.200;5.792;2023-01-31T15:17:23;9.00;99.90
53310;DHT22;39197;53.200;5.792;2023-01-31T15:22:32;9.00;99.90
53310;DHT22;39197;53.200;5.792;2023-01-31T15:25:07;8.80;99.90
53310;DHT22;39197;53.200;5.792;2023-01-31T15:27:42;8.70;99.90
53310;DHT22;39197;53.200;5.792;2023-01-31T15:30:12;8.50;99.90
53310;DHT22;39197;53.200;5.792;2023-01-31T15:33:03;8.50;99.90
53310;DHT22;39197;53.200;5.792;2023-01-31T15:35:45;8.60;99.90
53310;DHT22;39197;53.200;5.792;2023-01-31T15:41:41;8.30;99.90
53310;DHT22;39197;53.200;5.792;2023-01-31T15:46:44;8.00;99.90
53310;DHT22;39197;53.200;5.792;2023-01-31T15:54:33;7.80;99.90
53310;DHT22;39197;53.200;5.792;2023-01-31T15:57:00;7.80;99.90
53310;DHT22;39197;53.200;5.792;2023-01-31T15:59:27;7.70;99.90
53310;DHT22;39197;53.200;5.792;2023-01-31T16:01:59;7.60;99.90
53310;DHT22;39197;53.200;5.792;2023-01-31T16:04:26;7.70;99.90
53310;DHT22;39197;53.200;5.792;2023-01-31T16:06:52;7.50;99.90
53310;DHT22;39197;53.200;5.792;2023-01-31T16:09:28;7.50;99.90
53310;DHT22;39197;53.200;5.792;2023-01-31T16:11:56;7.40;99.90
53310;DHT22;39197;53.200;5.792;2023-01-31T16:14:22;7.40;99.90
53310;DHT22;39197;53.200;5.792;2023-01-31T16:16:51;7.30;99.90
53310;DHT22;39197;53.200;5.792;2023-01-31T16:19:25;7.30;99.90
53310;DHT22;39197;53.200;5.792;2023-01-31T16:21:52;7.20;99.90
53310;DHT22;39197;53.200;5.792;2023-01-31T16:24:21;7.20;99.90
53310;DHT22;39197;53.200;5.792;2023-01-31T16:26:55;7.10;99.90
53310;DHT22;39197;53.200;5.792;2023-01-31T16:29:23;7.10;99.90
53310;DHT22;39197;53.200;5.792;2023-01-31T16:31:54;7.10;99.90
53310;DHT22;39197;53.200;5.792;2023-01-31T16:34:34;7.00;99.90
53310;DHT22;39197;53.200;5.792;2023-01-31T16:37:04;7.00;99.90
53310;DHT22;39197;53.200;5.792;2023-01-31T16:39:48;6.90;99.90
53310;DHT22;39197;53.200;5.792;2023-01-31T16:44:43;6.90;99.90
53310;DHT22;39197;53.200;5.792;2023-01-31T16:52:48;6.90;99.90
53310;DHT22;39197;53.200;5.792;2023-01-31T16:55:19;6.80;99.90
53310;DHT22;39197;53.200;5.792;2023-01-31T16:57:46;6.80;99.90
53310;DHT22;39197;53.200;5.792;2023-01-31T17:02:54;6.80;99.90
53310;DHT22;39197;53.200;5.792;2023-01-31T17:05:38;6.80;99.90
53310;DHT22;39197;53.200;5.792;2023-01-31T17:08:16;6.80;99.90
53310;DHT22;39197;53.200;5.792;2023-01-31T17:10:43;6.80;99.90
53310;DHT22;39197;53.200;5.792;2023-01-31T17:13:21;6.70;99.90
53310;DHT22;39197;53.200;5.792;2023-01-31T17:15:48;6.70;99.90
53310;DHT22;39197;53.200;5.792;2023-01-31T17:18:14;6.70;99.90
53310;DHT22;39197;53.200;5.792;2023-01-31T17:20:42;6.70;99.90
53310;DHT22;39197;53.200;5.792;2023-01-31T17:23:09;6.70;99.90
53310;DHT22;39197;53.200;5.792;2023-01-31T17:25:35;6.70;99.90
53310;DHT22;39197;53.200;5.792;2023-01-31T17:28:01;6.70;99.90
53310;DHT22;39197;53.200;5.792;2023-01-31T17:30:28;6.60;99.90
53310;DHT22;39197;53.200;5.792;2023-01-31T17:32:55;6.60;99.90
53310;DHT22;39197;53.200;5.792;2023-01-31T17:35:34;6.60;99.90
53310;DHT22;39197;53.200;5.792;2023-01-31T17:38:01;6.50;99.90
53310;DHT22;39197;53.200;5.792;2023-01-31T17:40:26;6.40;99.90
53310;DHT22;39197;53.200;5.792;2023-01-31T17:42:56;6.50;99.90
53310;DHT22;39197;53.200;5.792;2023-01-31T17:45:22;6.50;99.90
53310;DHT22;39197;53.200;5.792;2023-01-31T17:47:48;6.50;99.90
53310;DHT22;39197;53.200;5.792;2023-01-31T17:50:19;6.50;99.90
53310;DHT22;39197;53.200;5.792;2023-01-31T17:52:46;6.50;99.90
53310;DHT22;39197;53.200;5.792;2023-01-31T17:55:13;6.50;99.90
53310;DHT22;39197;53.200;5.792;2023-01-31T17:57:39;6.60;99.90
53310;DHT22;39197;53.200;5.792;2023-01-31T18:00:06;6.50;99.90
53310;DHT22;39197;53.200;5.792;2023-01-31T18:02:35;6.50;99.90
53310;DHT22;39197;53.200;5.792;2023-01-31T18:05:01;6.50;99.90
53310;DHT22;39197;53.200;5.792;2023-01-31T18:07:27;6.60;99.90
53310;DHT22;39197;53.200;5.792;2023-01-31T18:09:52;6.60;99.90
53310;DHT22;39197;53.200;5.792;2023-01-31T18:12:19;6.60;99.90
53310;DHT22;39197;53.200;5.792;2023-01-31T18:14:44;6.60;99.90
53310;DHT22;39197;53.200;5.792;2023-01-31T18:17:10;6.60;99.90
53310;DHT22;39197;53.200;5.792;2023-01-31T18:19:36;6.50;99.90
53310;DHT22;39197;53.200;5.792;2023-01-31T18:22:01;6.50;99.90
53310;DHT22;39197;53.200;5.792;2023-01-31T18:24:27;6.60;99.90
53310;DHT22;39197;53.200;5.792;2023-01-31T18:26:52;6.60;99.90
53310;DHT22;39197;53.200;5.792;2023-01-31T18:29:18;6.60;99.90
53310;DHT22;39197;53.200;5.792;2023-01-31T18:31:46;6.60;99.90
53310;DHT22;39197;53.200;5.792;2023-01-31T18:34:11;6.60;99.90
53310;DHT22;39197;53.200;5.792;2023-01-31T18:36:37;6.50;99.90